Time;durP1;ratioP1;P1;durP2;ratioP2;P2;SDS_P1;SDS_P2;PMS_P1;PMS_P2;Temp;Humidity;BMP_temperature;BMP_pressure;BME280_temperature;BME280_humidity;BME280_pressure;Samples;Min_cycle;Max_cycle;Signal;HPM_P1;HPM_P2
2023/11/24 00:01:41;;;;;;;;;;;;;;;9.36;100.00;101504.19;5033086;28;19919;-40
2023/11/24 00:04:06;;;;;;;;;;;;;;;9.29;100.00;101501.28;5033117;28;19999;-41
2023/11/24 00:06:32;;;;;;;;;;;;;;;9.28;100.00;101498.75;5036734;28;19939;-40
2023/11/24 00:08:58;;;;;;;;;;;;;;;9.29;100.00;101501.28;5041509;28;19921;-40
2023/11/24 00:11:24;;;;;;;;;;;;;;;9.24;100.00;101498.22;5040413;28;19919;-41
2023/11/24 00:13:49;;;;;;;;;;;;;;;9.21;100.00;101503.91;5042171;28;19913;-41
2023/11/24 00:16:15;;;;;;;;;;;;;;;9.21;100.00;101482.41;5041598;28;19952;-40
2023/11/24 00:18:40;;;;;;;;;;;;;;;9.20;100.00;101492.31;5046333;28;19939;-40
2023/11/24 00:21:09;;;;;;;;;;;;;;;9.25;100.00;101486.50;5061964;28;19913;-40
2023/11/24 00:23:35;;;;;;;;;;;;;;;9.31;100.00;101498.44;5059192;28;20358;-41
2023/11/24 00:26:00;;;;;;;;;;;;;;;9.37;100.00;101479.00;5055150;28;19913;-40
2023/11/24 00:28:26;;;;;;;;;;;;;;;9.42;100.00;101485.56;5054440;28;19909;-41
2023/11/24 00:30:51;;;;;;;;;;;;;;;9.45;100.00;101485.28;5053443;28;20011;-39
2023/11/24 00:33:18;;;;;;;;;;;;;;;9.49;100.00;101483.09;5055921;23;20062;-40
2023/11/24 00:35:43;;;;;;;;;;;;;;;9.48;100.00;101469.81;5032277;28;19916;-40
2023/11/24 00:38:08;;;;;;;;;;;;;;;9.49;100.00;101471.53;5050011;28;20008;-40
2023/11/24 00:40:34;;;;;;;;;;;;;;;9.41;100.00;101473.16;5038103;28;19913;-42
2023/11/24 00:43:00;;;;;;;;;;;;;;;9.37;100.00;101471.81;5050451;28;19935;-40
2023/11/24 00:45:26;;;;;;;;;;;;;;;9.37;100.00;101471.81;5053967;28;20315;-39
2023/11/24 00:47:51;;;;;;;;;;;;;;;9.36;100.00;101477.31;5053587;28;19913;-40
2023/11/24 00:50:16;;;;;;;;;;;;;;;9.42;100.00;101488.25;5052717;28;19912;-40
2023/11/24 00:52:41;;;;;;;;;;;;;;;9.25;100.00;101489.19;5053859;28;19959;-41
2023/11/24 00:55:07;;;;;;;;;;;;;;;8.86;100.00;101494.91;5053499;28;19924;-39
2023/11/24 00:57:32;;;;;;;;;;;;;;;8.52;100.00;101474.13;5054122;28;19913;-40
2023/11/24 00:59:58;;;;;;;;;;;;;;;8.42;100.00;101469.84;5053281;28;19913;-41
2023/11/24 01:02:23;;;;;;;;;;;;;;;8.39;100.00;101480.84;5057650;28;19971;-40
2023/11/24 01:04:48;;;;;;;;;;;;;;;8.29;100.00;101479.09;5059854;28;19923;-41
2023/11/24 01:07:13;;;;;;;;;;;;;;;8.20;100.00;101471.09;5058846;28;20001;-40
2023/11/24 01:09:38;;;;;;;;;;;;;;;8.11;100.00;101478.22;5057647;28;19917;-40
2023/11/24 01:12:05;;;;;;;;;;;;;;;8.16;100.00;101467.84;5059523;28;19939;-41
2023/11/24 01:14:30;;;;;;;;;;;;;;;8.17;100.00;101461.53;5062165;28;19945;-40
2023/11/24 01:16:55;;;;;;;;;;;;;;;8.25;100.00;101460.78;5058478;28;19917;-40
2023/11/24 01:19:20;;;;;;;;;;;;;;;8.30;100.00;101466.53;5039551;28;19937;-40
2023/11/24 01:21:47;;;;;;;;;;;;;;;8.36;100.00;101466.75;5057013;28;20007;-40
2023/11/24 01:24:12;;;;;;;;;;;;;;;8.48;100.00;101499.59;5056463;28;19917;-40
2023/11/24 01:26:37;;;;;;;;;;;;;;;8.47;100.00;101487.16;5056442;28;19924;-40
2023/11/24 01:29:02;;;;;;;;;;;;;;;8.36;100.00;101482.00;5056697;28;19912;-40
2023/11/24 01:31:30;;;;;;;;;;;;;;;8.32;100.00;101496.69;5056814;28;19923;-41
2023/11/24 01:33:56;;;;;;;;;;;;;;;8.27;100.00;101493.66;5068389;28;19923;-40
2023/11/24 01:36:21;;;;;;;;;;;;;;;8.22;100.00;101495.94;5091933;28;19916;-39
2023/11/24 01:38:46;;;;;;;;;;;;;;;8.13;100.00;101482.41;5078877;28;20354;-40
2023/11/24 01:41:11;;;;;;;;;;;;;;;8.13;100.00;101486.94;5073110;28;19919;-40
2023/11/24 01:43:37;;;;;;;;;;;;;;;8.13;100.00;101482.41;5089777;28;19923;-40
2023/11/24 01:46:05;;;;;;;;;;;;;;;8.11;100.00;101473.69;5098245;28;20342;-40
2023/11/24 01:48:30;;;;;;;;;;;;;;;8.16;100.00;101469.69;5099265;28;19941;-40
2023/11/24 01:50:55;;;;;;;;;;;;;;;8.18;100.00;101467.72;5097338;28;19912;-39
2023/11/24 01:53:21;;;;;;;;;;;;;;;8.19;100.00;101448.81;5081769;28;19962;-39
2023/11/24 01:55:46;;;;;;;;;;;;;;;8.26;100.00;101451.72;5086820;28;19931;-39
2023/11/24 01:58:11;;;;;;;;;;;;;;;8.25;100.00;101458.09;5095335;28;20277;-40
2023/11/24 02:00:36;;;;;;;;;;;;;;;8.28;100.00;101447.03;5095826;28;19916;-39
2023/11/24 02:03:02;;;;;;;;;;;;;;;8.26;100.00;101441.00;5076562;28;19924;-41
2023/11/24 02:05:27;;;;;;;;;;;;;;;8.24;100.00;101440.28;5075894;28;19938;-40
2023/11/24 02:07:52;;;;;;;;;;;;;;;8.24;100.00;101434.94;5081241;28;19915;-40
2023/11/24 02:10:18;;;;;;;;;;;;;;;8.26;100.00;101432.94;5078102;28;19916;-41
2023/11/24 02:12:43;;;;;;;;;;;;;;;8.26;100.00;101439.16;5069151;28;20341;-40
2023/11/24 02:15:09;;;;;;;;;;;;;;;8.25;100.00;101431.28;5076339;28;19920;-40
2023/11/24 02:17:35;;;;;;;;;;;;;;;8.26;100.00;101439.16;5085493;28;19916;-40
2023/11/24 02:20:00;;;;;;;;;;;;;;;8.28;100.00;101442.53;5096034;28;19938;-40
2023/11/24 02:22:25;;;;;;;;;;;;;;;8.30;100.00;101426.28;5060983;28;19916;-40
2023/11/24 02:24:51;;;;;;;;;;;;;;;8.33;100.00;101420.63;5065365;28;19948;-40
2023/11/24 02:27:20;;;;;;;;;;;;;;;8.34;100.00;101409.72;5072809;28;19916;-40
2023/11/24 02:29:45;;;;;;;;;;;;;;;8.38;100.00;101420.16;5076909;28;19943;-40
2023/11/24 02:32:10;;;;;;;;;;;;;;;8.35;100.00;101421.31;5086464;28;19912;-40
2023/11/24 02:34:36;;;;;;;;;;;;;;;8.39;100.00;101427.22;5093472;28;19916;-40
2023/11/24 02:37:02;;;;;;;;;;;;;;;8.37;100.00;101419.31;5063689;28;19920;-41
2023/11/24 02:39:27;;;;;;;;;;;;;;;8.37;100.00;101416.63;5088010;28;19938;-41
2023/11/24 02:41:52;;;;;;;;;;;;;;;8.40;100.00;101396.72;5095900;28;19912;-41
2023/11/24 02:44:18;;;;;;;;;;;;;;;8.46;100.00;101396.97;5093598;28;19924;-41
2023/11/24 02:46:43;;;;;;;;;;;;;;;8.49;100.00;101385.91;5073421;28;19916;-41
2023/11/24 02:49:08;;;;;;;;;;;;;;;8.55;100.00;101371.03;5081684;28;19918;-40
2023/11/24 02:51:33;;;;;;;;;;;;;;;8.58;100.00;101368.03;5091160;28;19995;-40
2023/11/24 02:53:59;;;;;;;;;;;;;;;8.63;100.00;101376.47;5087982;28;19971;-41
2023/11/24 02:56:24;;;;;;;;;;;;;;;8.62;100.00;101377.47;5071677;28;19912;-39
2023/11/24 02:58:50;;;;;;;;;;;;;;;8.66;100.00;101369.94;5075513;28;20337;-40
2023/11/24 03:01:15;;;;;;;;;;;;;;;8.66;100.00;101359.22;5075570;28;19955;-41
2023/11/24 03:03:40;;;;;;;;;;;;;;;8.64;100.00;101369.28;5075278;28;19951;-40
2023/11/24 03:06:06;;;;;;;;;;;;;;;8.67;100.00;101366.28;5074512;28;19916;-40
2023/11/24 03:08:34;;;;;;;;;;;;;;;8.65;100.00;101368.28;5092858;28;20011;-41
2023/11/24 03:11:04;;;;;;;;;;;;;;;8.69;100.00;101369.63;5095777;28;19977;-41
2023/11/24 03:13:30;;;;;;;;;;;;;;;8.68;100.00;101360.75;5095632;28;19965;-40
2023/11/24 03:15:55;;;;;;;;;;;;;;;8.66;100.00;101369.94;5095649;28;20002;-40
2023/11/24 03:18:20;;;;;;;;;;;;;;;8.71;100.00;101364.94;5094929;28;20007;-40
2023/11/24 03:20:45;;;;;;;;;;;;;;;8.68;100.00;101352.69;5095179;28;19912;-40
2023/11/24 03:23:10;;;;;;;;;;;;;;;8.65;100.00;101352.16;5080014;28;19940;-40
2023/11/24 03:25:36;;;;;;;;;;;;;;;8.65;100.00;101354.84;5074989;28;19912;-40
2023/11/24 03:28:01;;;;;;;;;;;;;;;8.65;100.00;101341.44;5074417;28;19920;-39
2023/11/24 03:30:27;;;;;;;;;;;;;;;8.68;100.00;101330.38;5074951;28;19912;-40
2023/11/24 03:32:52;;;;;;;;;;;;;;;8.70;100.00;101334.59;5074285;28;20325;-41
2023/11/24 03:35:17;;;;;;;;;;;;;;;8.74;100.00;101330.59;5074592;28;19919;-40
2023/11/24 03:37:42;;;;;;;;;;;;;;;8.78;100.00;101341.88;5074070;28;20355;-41
2023/11/24 03:40:09;;;;;;;;;;;;;;;8.77;100.00;101324.09;5074371;28;19913;-40
2023/11/24 03:42:34;;;;;;;;;;;;;;;8.73;100.00;101325.38;5056642;28;19912;-40
2023/11/24 03:45:01;;;;;;;;;;;;;;;8.69;100.00;101332.06;5074768;28;19931;-40
2023/11/24 03:47:26;;;;;;;;;;;;;;;8.64;100.00;101331.72;5074116;28;19916;-40
2023/11/24 03:49:51;;;;;;;;;;;;;;;8.66;100.00;101333.25;5056172;28;19913;-40
2023/11/24 03:52:16;;;;;;;;;;;;;;;8.65;100.00;101344.13;5056402;28;19919;-41
2023/11/24 03:54:42;;;;;;;;;;;;;;;8.65;100.00;101333.38;5073430;28;19916;-40
2023/11/24 03:57:07;;;;;;;;;;;;;;;8.65;100.00;101330.72;5073944;28;19962;-40
2023/11/24 03:59:32;;;;;;;;;;;;;;;8.60;100.00;101319.59;5074331;28;19919;-40
2023/11/24 04:01:58;;;;;;;;;;;;;;;8.57;100.00;101316.22;5073882;28;19938;-40
2023/11/24 04:04:23;;;;;;;;;;;;;;;8.56;100.00;101319.91;5074173;28;19919;-40
2023/11/24 04:06:48;;;;;;;;;;;;;;;8.56;100.00;101314.56;5074185;28;19912;-40
2023/11/24 04:09:14;;;;;;;;;;;;;;;8.61;100.00;101318.59;5073494;28;19926;-39
2023/11/24 04:11:40;;;;;;;;;;;;;;;8.62;100.00;101325.66;5054007;28;19924;-39
2023/11/24 04:14:05;;;;;;;;;;;;;;;8.60;100.00;101316.91;5053831;28;19913;-39
2023/11/24 04:16:31;;;;;;;;;;;;;;;8.57;100.00;101331.50;5054089;28;19947;-40
2023/11/24 04:18:56;;;;;;;;;;;;;;;8.50;100.00;101323.22;5053799;28;19916;-40
2023/11/24 04:21:21;;;;;;;;;;;;;;;8.47;100.00;101318.16;5054638;28;19963;-40
2023/11/24 04:23:46;;;;;;;;;;;;;;;8.34;100.00;101313.16;5061388;28;19913;-41
2023/11/24 04:26:12;;;;;;;;;;;;;;;8.20;100.00;101316.41;5062978;28;19939;-40
2023/11/24 04:28:37;;;;;;;;;;;;;;;8.06;100.00;101304.41;5054693;28;20110;-41
2023/11/24 04:31:02;;;;;;;;;;;;;;;8.00;100.00;101305.00;5054569;28;19995;-40
2023/11/24 04:33:27;;;;;;;;;;;;;;;7.93;100.00;101297.75;5070404;28;19915;-41
2023/11/24 04:35:55;;;;;;;;;;;;;;;7.93;100.00;101298.59;5086500;28;19938;-39
2023/11/24 04:38:20;;;;;;;;;;;;;;;7.99;100.00;101299.81;5089412;28;19916;-40
2023/11/24 04:40:45;;;;;;;;;;;;;;;8.06;100.00;101300.91;5093845;28;19920;-39
2023/11/24 04:43:10;;;;;;;;;;;;;;;8.11;100.00;101299.44;5093742;28;20284;-41
2023/11/24 04:45:36;;;;;;;;;;;;;;;8.16;100.00;101303.47;5093962;28;20521;-40
2023/11/24 04:48:01;;;;;;;;;;;;;;;8.21;100.00;101315.41;5093987;28;20294;-40
2023/11/24 04:50:27;;;;;;;;;;;;;;;8.23;100.00;101304.53;5094640;28;19912;-41
2023/11/24 04:52:52;;;;;;;;;;;;;;;8.22;100.00;101314.44;5089069;28;19912;-39
2023/11/24 04:55:17;;;;;;;;;;;;;;;8.23;100.00;101294.66;5074355;28;20016;-40
2023/11/24 04:57:49;;;;;;;;;;;;;;;8.18;100.00;101296.97;5073449;28;19913;-40
2023/11/24 05:00:14;;;;;;;;;;;;;;;8.10;100.00;101283.47;5071887;28;19912;-40
2023/11/24 05:02:39;;;;;;;;;;;;;;;7.99;100.00;101299.81;5071686;28;19966;-39
2023/11/24 05:05:06;;;;;;;;;;;;;;;8.01;100.00;101295.16;5073286;28;19938;-41
2023/11/24 05:07:31;;;;;;;;;;;;;;;8.05;100.00;101328.69;5074656;28;20394;-40
2023/11/24 05:09:56;;;;;;;;;;;;;;;8.01;100.00;101311.22;5077294;28;19954;-39
2023/11/24 05:12:21;;;;;;;;;;;;;;;7.93;100.00;101298.59;5079675;28;19916;-38
2023/11/24 05:14:47;;;;;;;;;;;;;;;7.82;100.00;101297.00;5081969;28;19920;-39
2023/11/24 05:17:12;;;;;;;;;;;;;;;7.69;100.00;101292.00;5079732;28;19919;-40
2023/11/24 05:19:37;;;;;;;;;;;;;;;7.61;100.00;101289.25;5074940;28;19913;-40
2023/11/24 05:22:03;;;;;;;;;;;;;;;7.56;100.00;101294.22;5073424;28;19999;-40
2023/11/24 05:24:28;;;;;;;;;;;;;;;7.58;100.00;101294.91;5073142;28;19916;-39
2023/11/24 05:26:53;;;;;;;;;;;;;;;7.63;100.00;101281.03;5073006;28;19978;-40
2023/11/24 05:29:18;;;;;;;;;;;;;;;7.67;100.00;101277.06;5073056;28;19913;-40
2023/11/24 05:31:44;;;;;;;;;;;;;;;7.76;100.00;101275.31;5073365;28;19919;-40
2023/11/24 05:34:09;;;;;;;;;;;;;;;7.81;100.00;101263.13;5072999;28;19917;-39
2023/11/24 05:36:34;;;;;;;;;;;;;;;7.84;100.00;101259.31;5073282;28;19916;-40
2023/11/24 05:38:59;;;;;;;;;;;;;;;7.88;100.00;101260.69;5073193;28;19912;-40
2023/11/24 05:41:26;;;;;;;;;;;;;;;7.89;100.00;101270.41;5055480;28;19912;-41
2023/11/24 05:43:51;;;;;;;;;;;;;;;7.92;100.00;101270.09;5073293;28;19981;-40
2023/11/24 05:46:16;;;;;;;;;;;;;;;7.93;100.00;101260.25;5073961;28;19923;-40
2023/11/24 05:48:41;;;;;;;;;;;;;;;7.96;100.00;101258.09;5074597;28;19924;-40
2023/11/24 05:51:07;;;;;;;;;;;;;;;7.87;100.00;101272.38;5058269;28;19923;-40
2023/11/24 05:53:33;;;;;;;;;;;;;;;7.87;100.00;101267.03;5074192;28;19912;-40
2023/11/24 05:55:59;;;;;;;;;;;;;;;7.81;100.00;101251.59;5073065;28;19912;-39
2023/11/24 05:58:24;;;;;;;;;;;;;;;7.75;100.00;101249.53;5082128;28;20010;-40
2023/11/24 06:00:49;;;;;;;;;;;;;;;7.77;100.00;101252.91;5085188;28;19923;-38
2023/11/24 06:03:15;;;;;;;;;;;;;;;7.81;100.00;101264.97;5097870;28;19985;-40
2023/11/24 06:05:40;;;;;;;;;;;;;;;7.83;100.00;101254.97;5088882;28;19916;-41
2023/11/24 06:08:06;;;;;;;;;;;;;;;7.87;100.00;101261.66;5084081;28;19956;-40
2023/11/24 06:10:31;;;;;;;;;;;;;;;7.86;100.00;101260.00;5084691;28;19955;-39
2023/11/24 06:12:57;;;;;;;;;;;;;;;7.78;100.00;101249.22;5094532;28;19923;-38
2023/11/24 06:15:22;;;;;;;;;;;;;;;7.75;100.00;101253.03;5101413;28;19923;-39
2023/11/24 06:17:48;;;;;;;;;;;;;;;7.75;100.00;101258.41;5102198;28;20309;-40
2023/11/24 06:20:13;;;;;;;;;;;;;;;7.70;100.00;101248.13;5101634;28;19916;-39
2023/11/24 06:22:39;;;;;;;;;;;;;;;7.68;100.00;101238.56;5100864;28;19916;-40
2023/11/24 06:25:04;;;;;;;;;;;;;;;7.68;100.00;101235.88;5096266;28;19916;-40
2023/11/24 06:27:29;;;;;;;;;;;;;;;7.74;100.00;101231.75;5077606;28;20023;-40
2023/11/24 06:29:55;;;;;;;;;;;;;;;7.77;100.00;101231.47;5089791;28;20351;-41
2023/11/24 06:32:20;;;;;;;;;;;;;;;7.85;100.00;101242.25;5074900;28;20362;-39
2023/11/24 06:34:46;;;;;;;;;;;;;;;7.89;100.00;101232.88;5080250;28;20378;-40
2023/11/24 06:37:12;;;;;;;;;;;;;;;7.88;100.00;101229.38;5081944;28;19920;-42
2023/11/24 06:39:37;;;;;;;;;;;;;;;7.94;100.00;101253.88;5097575;28;19953;-41
2023/11/24 06:42:04;;;;;;;;;;;;;;;8.01;100.00;101263.81;5095012;28;19925;-40
2023/11/24 06:44:29;;;;;;;;;;;;;;;7.67;100.00;101287.78;5080731;28;20054;-40
2023/11/24 06:46:55;;;;;;;;;;;;;;;7.40;100.00;101286.00;5087736;28;19984;-39
2023/11/24 06:49:20;;;;;;;;;;;;;;;7.19;100.00;101284.44;5096291;28;19912;-40
2023/11/24 06:51:48;;;;;;;;;;;;;;;7.03;100.00;101284.22;5093284;28;19912;-40
2023/11/24 06:54:13;;;;;;;;;;;;;;;6.91;100.00;101282.72;5057652;28;19922;-40
2023/11/24 06:56:39;;;;;;;;;;;;;;;6.85;100.00;101302.88;5076297;28;20370;-39
2023/11/24 06:59:04;;;;;;;;;;;;;;;6.82;100.00;101308.53;5074772;28;19979;-39
2023/11/24 07:01:31;;;;;;;;;;;;;;;6.78;100.00;101297.25;5074869;28;19917;-41
2023/11/24 07:03:57;;;;;;;;;;;;;;;6.64;100.00;101283.53;5068481;28;19920;-39
2023/11/24 07:06:23;;;;;;;;;;;;;;;6.63;100.00;101274.66;5074218;28;19942;-39
2023/11/24 07:08:52;;;;;;;;;;;;;;;6.58;100.00;101266.22;5074101;28;20426;-40
2023/11/24 07:11:17;;;;;;;;;;;;;;;6.61;100.00;101279.31;5074374;28;20003;-41
2023/11/24 07:13:43;;;;;;;;;;;;;;;6.65;100.00;101269.16;5077634;28;19956;-41
2023/11/24 07:16:08;;;;;;;;;;;;;;;6.70;100.00;101257.03;5076926;28;19908;-39
2023/11/24 07:18:33;;;;;;;;;;;;;;;6.76;100.00;101251.09;5084974;28;19923;-40
2023/11/24 07:20:58;;;;;;;;;;;;;;;6.86;100.00;101245.69;5093372;28;19916;-40
2023/11/24 07:23:24;;;;;;;;;;;;;;;6.97;100.00;101248.19;5073918;28;19916;-40
2023/11/24 07:25:49;;;;;;;;;;;;;;;7.05;100.00;101239.41;5094510;28;20358;-41
2023/11/24 07:28:14;;;;;;;;;;;;;;;7.14;100.00;101232.34;5094887;28;19912;-40
2023/11/24 07:30:42;;;;;;;;;;;;;;;7.29;100.00;101254.06;5094840;28;19912;-40
2023/11/24 07:33:07;;;;;;;;;;;;;;;7.38;100.00;101259.38;5094579;28;20334;-40
2023/11/24 07:35:33;;;;;;;;;;;;;;;7.37;100.00;101264.84;5095819;28;19951;-40
2023/11/24 07:37:58;;;;;;;;;;;;;;;7.32;100.00;101278.72;5094976;28;19959;-40
2023/11/24 07:40:25;;;;;;;;;;;;;;;7.26;100.00;101288.16;5094815;28;19931;-40
2023/11/24 07:42:50;;;;;;;;;;;;;;;7.10;100.00;101284.47;5094483;28;20469;-40
2023/11/24 07:45:16;;;;;;;;;;;;;;;7.01;100.00;101288.88;5099996;28;19912;-41
2023/11/24 07:47:41;;;;;;;;;;;;;;;6.93;100.00;101278.91;5101536;28;19916;-42
2023/11/24 07:50:06;;;;;;;;;;;;;;;6.88;100.00;101280.34;5102374;28;19912;-39
2023/11/24 07:52:32;;;;;;;;;;;;;;;6.75;100.00;101276.16;5100386;28;20006;-40
2023/11/24 07:54:57;;;;;;;;;;;;;;;6.68;100.00;101274.22;5096578;28;19912;-40
2023/11/24 07:57:24;;;;;;;;;;;;;;;6.68;100.00;101274.22;5095403;28;20372;-41
2023/11/24 07:59:50;;;;;;;;;;;;;;;6.68;100.00;101300.97;5095231;28;20339;-39
2023/11/24 08:02:15;;;;;;;;;;;;;;;6.46;100.00;101296.81;5094918;28;19912;-39
2023/11/24 08:04:41;;;;;;;;;;;;;;;6.28;100.00;101270.78;5094850;28;19919;-39
2023/11/24 08:07:06;;;;;;;;;;;;;;;6.14;100.00;101265.91;5095289;28;19912;-38
2023/11/24 08:09:31;;;;;;;;;;;;;;;6.08;100.00;101277.16;5095041;28;19920;-39
2023/11/24 08:11:56;;;;;;;;;;;;;;;6.07;100.00;101294.19;5094877;28;19923;-39
2023/11/24 08:14:23;;;;;;;;;;;;;;;6.02;100.00;101291.09;5095276;28;19912;-39
2023/11/24 08:16:49;;;;;;;;;;;;;;;6.08;100.00;101282.50;5095705;28;20030;-40
2023/11/24 08:19:15;;;;;;;;;;;;;;;6.07;100.00;101292.34;5079006;28;19959;-41
2023/11/24 08:21:41;;;;;;;;;;;;;;;6.07;100.00;101276.31;5100485;28;19919;-41
2023/11/24 08:24:06;;;;;;;;;;;;;;;6.06;100.00;101274.63;5095604;28;19912;-41
2023/11/24 08:26:32;;;;;;;;;;;;;;;6.03;100.00;101266.03;5093913;28;20018;-42
2023/11/24 08:28:57;;;;;;;;;;;;;;;6.02;100.00;101261.69;5093896;28;19919;-42
2023/11/24 08:31:22;;;;;;;;;;;;;;;6.03;100.00;101252.69;5094276;28;19912;-40
2023/11/24 08:33:48;;;;;;;;;;;;;;;6.23;100.00;101249.00;5093904;28;19927;-40
2023/11/24 08:36:14;;;;;;;;;;;;;;;6.48;100.00;101230.66;5094394;28;19954;-39
2023/11/24 08:38:40;;;;;;;;;;;;;;;6.80;100.00;101224.91;5093226;28;19912;-40
2023/11/24 08:41:09;;;;;;;;;;;;;;;7.07;100.00;101225.88;5093649;28;19919;-40
2023/11/24 08:43:36;;;;;;;;;;;;;;;7.14;100.00;101221.63;5093528;28;19979;-39
2023/11/24 08:46:01;;;;;;;;;;;;;;;7.25;100.00;101221.41;5093968;28;20433;-40
2023/11/24 08:48:27;;;;;;;;;;;;;;;7.24;100.00;101228.59;5092915;28;19999;-40
2023/11/24 08:50:52;;;;;;;;;;;;;;;7.32;100.00;101240.38;5094007;28;19916;-41
2023/11/24 08:53:18;;;;;;;;;;;;;;;7.47;100.00;101234.34;5093748;28;19966;-41
2023/11/24 08:55:43;;;;;;;;;;;;;;;7.79;100.00;101226.78;5093868;28;20002;-40
2023/11/24 08:58:09;;;;;;;;;;;;;;;8.02;100.00;101217.25;5094264;28;20357;-40
2023/11/24 09:00:35;;;;;;;;;;;;;;;8.21;100.00;101204.63;5094001;28;19916;-40
2023/11/24 09:03:02;;;;;;;;;;;;;;;8.11;100.00;101213.66;5093988;28;19912;-41
2023/11/24 09:05:27;;;;;;;;;;;;;;;8.01;100.00;101204.84;5093468;28;19912;-41
2023/11/24 09:07:53;;;;;;;;;;;;;;;7.90;100.00;101210.47;5094363;28;19943;-41
2023/11/24 09:10:19;;;;;;;;;;;;;;;7.82;100.00;101196.97;5095409;28;19915;-41
2023/11/24 09:12:45;;;;;;;;;;;;;;;7.96;100.00;101201.81;5094013;28;19999;-40
2023/11/24 09:15:11;;;;;;;;;;;;;;;8.04;100.00;101199.19;5094209;28;19918;-40
2023/11/24 09:17:36;;;;;;;;;;;;;;;8.07;100.00;101193.50;5094009;28;19912;-40
2023/11/24 09:20:05;;;;;;;;;;;;;;;8.02;100.00;101200.31;5097516;28;19912;-41
2023/11/24 09:22:30;;;;;;;;;;;;;;;7.93;100.00;101206.63;5099288;28;19919;-40
2023/11/24 09:24:56;;;;;;;;;;;;;;;7.96;100.00;101207.16;5099723;28;19912;-40
2023/11/24 09:27:22;;;;;;;;;;;;;;;7.91;100.00;101214.81;5095962;28;19959;-40
2023/11/24 09:29:47;;;;;;;;;;;;;;;8.18;100.00;101205.78;5094539;28;19923;-41
2023/11/24 09:32:12;;;;;;;;;;;;;;;8.71;100.00;101201.25;5095181;28;19968;-40
2023/11/24 09:34:38;;;;;;;;;;;;;;;9.18;100.00;101198.91;5095822;28;20440;-40
2023/11/24 09:37:03;;;;;;;;;;;;;;;9.41;100.00;101198.28;5098801;28;19919;-40
2023/11/24 09:39:28;;;;;;;;;;;;;;;9.86;100.00;101192.44;5090701;28;19917;-40
2023/11/24 09:41:54;;;;;;;;;;;;;;;9.77;100.00;101192.59;5076453;28;19912;-40
2023/11/24 09:44:19;;;;;;;;;;;;;;;10.01;100.00;101195.28;5077127;28;19912;-40
2023/11/24 09:46:44;;;;;;;;;;;;;;;10.10;100.00;101194.25;5077084;28;19970;-40
2023/11/24 09:49:10;;;;;;;;;;;;;;;9.83;100.00;101197.31;5058783;28;19958;-40
2023/11/24 09:51:37;;;;;;;;;;;;;;;9.62;100.00;101195.97;5076043;28;19917;-40
2023/11/24 09:54:03;;;;;;;;;;;;;;;9.41;100.00;101177.63;5076356;28;19958;-40
2023/11/24 09:56:28;;;;;;;;;;;;;;;9.55;100.00;101175.28;5059151;28;19966;-40
2023/11/24 09:58:53;;;;;;;;;;;;;;;9.74;100.00;101183.06;5076690;28;19917;-40
2023/11/24 10:01:19;;;;;;;;;;;;;;;9.61;100.00;101193.44;5076499;28;19991;-41
2023/11/24 10:03:50;;;;;;;;;;;;;;;9.50;100.00;101201.81;5076620;28;19930;-41
2023/11/24 10:06:16;;;;;;;;;;;;;;;8.99;100.00;101189.28;5077020;28;19953;-40
2023/11/24 10:08:41;;;;;;;;;;;;;;;8.53;100.00;101186.09;5058121;28;20023;-40
2023/11/24 10:11:12;;;;;;;;;;;;;;;8.48;100.00;101207.19;5076467;28;19920;-39
2023/11/24 10:13:37;;;;;;;;;;;;;;;8.65;100.00;101216.16;5076585;28;20302;-40
2023/11/24 10:16:03;;;;;;;;;;;;;;;8.40;100.00;101217.88;5076371;28;19927;-41
2023/11/24 10:18:28;;;;;;;;;;;;;;;8.01;100.00;101215.56;5076545;28;19948;-40
2023/11/24 10:20:55;;;;;;;;;;;;;;;7.81;100.00;101219.44;5075941;28;19981;-40
2023/11/24 10:23:20;;;;;;;;;;;;;;;7.55;100.00;101220.19;5058433;28;19912;-40
2023/11/24 10:25:45;;;;;;;;;;;;;;;7.39;100.00;101220.03;5057833;28;19919;-41
2023/11/24 10:28:11;;;;;;;;;;;;;;;7.23;100.00;101226.06;5076027;28;19957;-40
2023/11/24 10:30:36;;;;;;;;;;;;;;;6.94;100.00;101212.84;5076537;28;19912;-40
2023/11/24 10:33:03;;;;;;;;;;;;;;;6.73;100.00;101197.88;5075768;28;19962;-39
2023/11/24 10:35:28;;;;;;;;;;;;;;;6.72;100.00;101193.53;5058445;28;19920;-39
2023/11/24 10:37:54;;;;;;;;;;;;;;;6.67;100.00;101177.09;5075984;28;19912;-40
2023/11/24 10:40:20;;;;;;;;;;;;;;;6.75;100.00;101176.34;5076466;28;19915;-39
2023/11/24 10:42:47;;;;;;;;;;;;;;;6.99;100.00;101171.28;5059832;28;19936;-40
2023/11/24 10:45:14;;;;;;;;;;;;;;;7.32;100.00;101163.59;5059856;28;19919;-40
2023/11/24 10:47:46;;;;;;;;;;;;;;;7.63;100.00;101164.00;5058280;28;19916;-40
2023/11/24 10:50:16;;;;;;;;;;;;;;;8.19;100.00;101153.00;5057383;28;19961;-40
2023/11/24 10:53:01;;;;;;;;;;;;;;;8.57;100.00;101157.94;5056980;28;19916;-40
2023/11/24 10:55:30;;;;;;;;;;;;;;;8.52;100.00;101141.47;5039654;28;20374;-40
2023/11/24 10:57:55;;;;;;;;;;;;;;;8.47;100.00;101157.22;5058620;28;19912;-40
2023/11/24 11:00:21;;;;;;;;;;;;;;;8.50;100.00;101139.97;5077536;28;20283;-41
2023/11/24 11:02:46;;;;;;;;;;;;;;;8.52;100.00;101157.56;5062873;28;20003;-40
2023/11/24 11:05:36;;;;;;;;;;;;;;;8.65;100.00;101158.97;5080684;28;19912;-40
2023/11/24 11:08:06;;;;;;;;;;;;;;;8.59;100.00;101155.09;5078426;28;19912;-40
2023/11/24 11:10:36;;;;;;;;;;;;;;;8.50;100.00;101150.69;5076221;28;19912;-40
2023/11/24 11:13:01;;;;;;;;;;;;;;;8.49;100.00;101138.28;5058000;28;19916;-39
2023/11/24 11:15:28;;;;;;;;;;;;;;;8.31;100.00;101146.38;5057340;28;20044;-40
2023/11/24 11:18:25;;;;;;;;;;;;;;;8.38;100.00;101134.03;5075227;28;19919;-39
2023/11/24 11:20:51;;;;;;;;;;;;;;;8.89;100.00;101123.34;5035132;28;19919;-40
2023/11/24 11:23:17;;;;;;;;;;;;;;;9.54;100.00;101109.97;5075409;28;19912;-40
2023/11/24 11:25:43;;;;;;;;;;;;;;;10.16;100.00;101125.50;5074752;28;19970;-41
2023/11/24 11:28:17;;;;;;;;;;;;;;;10.28;100.00;101110.69;5075211;28;19958;-41
2023/11/24 11:30:44;;;;;;;;;;;;;;;10.20;100.00;101109.88;5074787;28;19916;-41
2023/11/24 11:33:12;;;;;;;;;;;;;;;10.52;100.00;101114.31;5057014;28;19916;-40
2023/11/24 11:35:41;;;;;;;;;;;;;;;10.58;100.00;101100.13;5074692;28;19950;-41
2023/11/24 11:38:07;;;;;;;;;;;;;;;10.88;100.00;101116.50;5075117;28;19908;-40
2023/11/24 11:40:33;;;;;;;;;;;;;;;11.14;100.00;101111.63;5074605;28;19923;-40
2023/11/24 11:43:02;;;;;;;;;;;;;;;10.75;100.00;101109.81;5074813;28;19908;-40
2023/11/24 11:45:30;;;;;;;;;;;;;;;10.11;100.00;101115.28;5074548;28;19916;-40
2023/11/24 11:47:56;;;;;;;;;;;;;;;9.26;100.00;101114.00;5056835;28;19912;-41
2023/11/24 11:50:21;;;;;;;;;;;;;;;9.11;100.00;101116.47;5074076;28;19912;-40
2023/11/24 11:52:48;;;;;;;;;;;;;;;8.87;100.00;101120.78;5074398;28;19938;-41
2023/11/24 11:55:14;;;;;;;;;;;;;;;8.79;100.00;101134.19;5074540;28;19912;-40
2023/11/24 11:57:40;;;;;;;;;;;;;;;8.71;100.00;101123.44;5073742;28;19919;-41
2023/11/24 12:00:09;;;;;;;;;;;;;;;8.24;100.00;101123.88;5074288;28;19912;-41
2023/11/24 12:02:34;;;;;;;;;;;;;;;7.92;100.00;101125.38;5074318;28;19912;-40
2023/11/24 12:04:59;;;;;;;;;;;;;;;7.57;100.00;101128.97;5074324;28;19918;-40
2023/11/24 12:07:26;;;;;;;;;;;;;;;7.48;100.00;101106.66;5074408;28;19999;-40
2023/11/24 12:09:51;;;;;;;;;;;;;;;7.56;100.00;101112.06;5075112;28;19919;-40
2023/11/24 12:12:17;;;;;;;;;;;;;;;7.66;100.00;101110.16;5074906;28;20293;-40
2023/11/24 12:14:43;;;;;;;;;;;;;;;7.96;100.00;101108.00;5075055;28;19982;-40
2023/11/24 12:17:09;;;;;;;;;;;;;;;8.03;100.00;101084.94;5076424;28;20030;-41
2023/11/24 12:19:35;;;;;;;;;;;;;;;8.34;100.00;101082.53;5083594;28;19995;-40
2023/11/24 12:22:01;;;;;;;;;;;;;;;8.53;100.00;101094.03;5064455;28;19947;-41
2023/11/24 12:24:26;;;;;;;;;;;;;;;8.45;100.00;101083.28;5081624;28;19912;-41
2023/11/24 12:26:53;;;;;;;;;;;;;;;8.37;100.00;101092.09;5076561;28;20013;-40
2023/11/24 12:29:18;;;;;;;;;;;;;;;8.27;100.00;101097.59;5056767;28;20349;-40